createdAt,value
2019-02-07T00:00:58.906Z,12.10
2019-02-07T00:05:03.196Z,11.20
2019-02-07T00:09:10.346Z,11.33
2019-02-07T00:13:14.603Z,9.00
2019-02-07T00:17:18.830Z,8.37
2019-02-07T00:21:23.804Z,9.30
2019-02-07T00:25:28.066Z,8.17
2019-02-07T00:29:32.441Z,10.33
2019-02-07T00:33:36.724Z,10.27
2019-02-07T00:37:40.989Z,12.83
2019-02-07T00:41:45.899Z,13.67
2019-02-07T00:45:50.173Z,14.73
2019-02-07T00:49:54.480Z,10.77
2019-02-07T00:53:58.731Z,11.93
2019-02-07T00:58:03.100Z,13.00
2019-02-07T01:02:08.050Z,10.20
2019-02-07T01:06:12.599Z,7.57
2019-02-07T01:10:20.787Z,7.30
2019-02-07T01:14:25.519Z,8.57
2019-02-07T01:18:29.888Z,10.70
2019-02-07T01:22:34.463Z,10.83
2019-02-07T01:26:38.776Z,11.53
2019-02-07T01:30:43.348Z,10.47
2019-02-07T01:34:47.655Z,8.83
2019-02-07T01:38:51.962Z,9.50
2019-02-07T01:42:56.858Z,10.00
2019-02-07T01:47:01.084Z,11.00
2019-02-07T01:51:05.530Z,9.27
2019-02-07T01:55:10.131Z,10.33
2019-02-07T01:59:14.693Z,10.30
2019-02-07T02:03:18.980Z,9.40
2019-02-07T02:07:23.343Z,8.97
2019-02-07T02:11:27.655Z,8.93
2019-02-07T02:15:32.359Z,9.57
2019-02-07T02:19:36.612Z,8.30
2019-02-07T02:23:40.904Z,11.70
2019-02-07T02:27:45.950Z,11.20
2019-02-07T02:31:50.240Z,10.37
2019-02-07T02:35:54.824Z,9.33
2019-02-07T02:39:59.064Z,7.90
2019-02-07T02:44:03.739Z,9.07
2019-02-07T02:48:08.017Z,10.07
2019-02-07T02:52:12.256Z,6.80
2019-02-07T02:56:16.908Z,9.83
2019-02-07T03:00:24.693Z,9.57
2019-02-07T03:05:06.791Z,10.03
2019-02-07T03:09:34.645Z,8.23
2019-02-07T03:14:02.263Z,11.87
2019-02-07T03:18:28.903Z,9.17
2019-02-07T03:22:50.666Z,10.43
2019-02-07T03:27:07.567Z,8.63
2019-02-07T03:31:39.857Z,10.77
2019-02-07T03:36:12.358Z,10.30
2019-02-07T03:40:28.982Z,10.40
2019-02-07T03:44:51.353Z,8.83
2019-02-07T03:49:13.372Z,8.10
2019-02-07T03:53:48.755Z,10.50
2019-02-07T03:58:21.102Z,13.03
2019-02-07T04:02:47.246Z,13.13
2019-02-07T04:07:22.552Z,7.63
2019-02-07T04:11:44.424Z,7.47
2019-02-07T04:16:15.131Z,9.17
2019-02-07T04:20:50.957Z,12.33
2019-02-07T04:25:12.742Z,9.93
2019-02-07T04:29:45.102Z,13.50
2019-02-07T04:34:11.563Z,6.83
2019-02-07T04:38:35.668Z,9.50
2019-02-07T04:42:58.916Z,11.03
2019-02-07T04:47:14.762Z,10.33
2019-02-07T04:51:36.573Z,9.07
2019-02-07T04:56:08.145Z,9.73
2019-02-07T05:00:23.274Z,7.67
2019-02-07T05:04:45.618Z,7.03
2019-02-07T05:09:18.142Z,8.43
2019-02-07T05:13:40.422Z,7.83
2019-02-07T05:18:07.976Z,9.10
2019-02-07T05:22:34.306Z,9.83
2019-02-07T05:26:48.796Z,7.30
2019-02-07T05:31:10.496Z,9.73
2019-02-07T05:35:32.724Z,8.53
2019-02-07T05:40:14.278Z,13.50
2019-02-07T05:44:38.187Z,6.77
2019-02-07T05:49:01.273Z,11.70
2019-02-07T05:53:43.086Z,13.10
2019-02-07T05:58:15.124Z,8.13
2019-02-07T06:02:44.488Z,10.57
2019-02-07T06:07:06.008Z,9.33
2019-02-07T06:11:29.362Z,10.87
2019-02-07T06:15:51.599Z,10.87
2019-02-07T06:20:24.459Z,9.83
2019-02-07T06:24:47.732Z,10.73
2019-02-07T06:29:26.812Z,11.67
2019-02-07T06:33:48.969Z,8.13
2019-02-07T06:38:24.263Z,10.67
2019-02-07T06:42:41.776Z,11.23
2019-02-07T06:47:13.292Z,11.50
2019-02-07T06:51:32.979Z,10.13
2019-02-07T06:55:49.199Z,12.17
2019-02-07T07:00:15.769Z,10.50
2019-02-07T07:04:39.397Z,8.97
2019-02-07T07:09:21.142Z,7.93
2019-02-07T07:13:32.294Z,11.50
2019-02-07T07:17:55.575Z,8.63
2019-02-07T07:22:21.567Z,8.60
2019-02-07T07:27:00.019Z,8.53
2019-02-07T07:31:30.452Z,8.53
2019-02-07T07:35:46.317Z,9.53
2019-02-07T07:40:08.181Z,10.50
2019-02-07T07:44:30.362Z,9.57
2019-02-07T07:49:05.710Z,7.37
2019-02-07T07:53:28.972Z,7.97
2019-02-07T07:57:49.838Z,13.10
2019-02-07T08:02:06.882Z,8.53
2019-02-07T08:06:23.350Z,8.67
2019-02-07T08:10:55.732Z,9.53
2019-02-07T08:15:17.957Z,9.10
2019-02-07T08:19:50.490Z,10.97
2019-02-07T08:24:12.089Z,5.67
2019-02-07T08:28:38.062Z,9.97
2019-02-07T08:33:00.582Z,9.93
2019-02-07T08:37:38.873Z,10.70
2019-02-07T08:42:11.284Z,8.93
2019-02-07T08:46:34.455Z,10.23
2019-02-07T08:50:56.711Z,12.77
2019-02-07T08:55:22.928Z,7.93
2019-02-07T08:59:52.311Z,10.33
2019-02-07T09:04:14.558Z,9.33
2019-02-07T09:08:49.975Z,8.80
2019-02-07T09:13:31.807Z,10.17
2019-02-07T09:17:57.848Z,8.57
2019-02-07T09:22:20.033Z,8.83
2019-02-07T09:26:52.558Z,9.20
2019-02-07T09:31:18.611Z,8.63
2019-02-07T09:35:41.607Z,7.57
2019-02-07T09:39:56.186Z,8.93
2019-02-07T09:44:25.925Z,9.97
2019-02-07T09:49:02.987Z,12.67
2019-02-07T09:53:24.099Z,12.20
2019-02-07T09:57:33.287Z,11.87
2019-02-07T10:01:46.606Z,14.23
2019-02-07T10:06:00.362Z,11.27
2019-02-07T10:10:27.827Z,11.40
2019-02-07T10:15:09.498Z,11.77
2019-02-07T10:19:32.727Z,13.53
2019-02-07T10:23:58.929Z,12.07
2019-02-07T10:28:12.632Z,11.57
2019-02-07T10:32:37.823Z,11.07
2019-02-07T10:36:47.413Z,9.50
2019-02-07T10:41:03.377Z,12.47
2019-02-07T10:45:27.568Z,11.13
2019-02-07T10:49:46.192Z,13.20
2019-02-07T10:53:58.056Z,12.97
2019-02-07T10:58:33.690Z,10.30
2019-02-07T11:03:15.339Z,10.33
2019-02-07T11:07:31.380Z,11.40
2019-02-07T11:11:57.903Z,9.80
2019-02-07T11:16:20.442Z,11.37
2019-02-07T11:20:58.840Z,11.77
2019-02-07T11:25:25.039Z,11.60
2019-02-07T11:29:48.320Z,12.23
2019-02-07T11:34:20.883Z,13.20
2019-02-07T11:38:49.713Z,12.30
2019-02-07T11:43:13.278Z,11.50
2019-02-07T11:47:51.797Z,11.50
2019-02-07T11:52:33.238Z,10.80
2019-02-07T11:56:55.061Z,10.30
2019-02-07T12:01:30.631Z,8.10
2019-02-07T12:05:56.858Z,10.97
2019-02-07T12:10:23.599Z,11.23
2019-02-07T12:14:45.805Z,10.40
2019-02-07T12:19:17.778Z,10.93
2019-02-07T12:23:43.032Z,9.93
2019-02-07T12:28:12.445Z,11.90
2019-02-07T12:32:41.826Z,9.57
2019-02-07T12:37:05.020Z,10.80
2019-02-07T12:41:27.413Z,8.97
2019-02-07T12:45:46.228Z,10.57
2019-02-07T12:50:12.481Z,8.90
2019-02-07T12:54:34.939Z,8.43
2019-02-07T12:58:57.340Z,9.17
2019-02-07T13:03:18.603Z,10.57
2019-02-07T13:07:40.708Z,12.50
2019-02-07T13:12:03.357Z,10.17
2019-02-07T13:16:32.659Z,11.43
2019-02-07T13:21:06.265Z,8.03
2019-02-07T13:25:29.352Z,9.97
2019-02-07T13:29:48.183Z,11.23
2019-02-07T13:34:17.541Z,10.80
2019-02-07T13:38:52.977Z,10.63
2019-02-07T13:43:25.473Z,8.77
2019-02-07T13:47:54.575Z,7.87
2019-02-07T13:52:17.917Z,9.97
2019-02-07T13:56:35.624Z,11.47
2019-02-07T14:00:57.505Z,7.70
2019-02-07T14:05:09.303Z,8.67
2019-02-07T14:09:31.873Z,9.33
2019-02-07T14:14:01.210Z,10.20
2019-02-07T14:18:23.239Z,7.37
2019-02-07T14:22:38.929Z,11.90
2019-02-07T14:27:00.954Z,11.20
2019-02-07T14:31:14.198Z,9.03
2019-02-07T14:35:46.341Z,9.03
2019-02-07T14:40:15.639Z,11.30
2019-02-07T14:44:39.095Z,10.03
2019-02-07T14:48:45.209Z,7.00
2019-02-07T14:52:49.246Z,9.63
2019-02-07T14:56:53.510Z,11.63
2019-02-07T15:00:57.835Z,11.13
2019-02-07T15:05:02.402Z,10.97
2019-02-07T15:09:13.611Z,9.30
2019-02-07T15:13:18.107Z,8.57
2019-02-07T15:17:22.454Z,10.80
2019-02-07T15:21:27.116Z,10.07
2019-02-07T15:25:31.492Z,8.83
2019-02-07T15:29:35.717Z,8.33
2019-02-07T15:33:39.949Z,9.77
2019-02-07T15:37:44.126Z,8.00
2019-02-07T15:41:49.822Z,9.90
2019-02-07T15:45:54.410Z,10.17
2019-02-07T15:49:58.721Z,7.90
2019-02-07T15:54:03.044Z,7.67
2019-02-07T15:58:07.619Z,9.13
2019-02-07T16:02:37.211Z,7.47
2019-02-07T16:06:41.657Z,8.70
2019-02-07T16:10:46.047Z,7.23
2019-02-07T16:14:50.669Z,8.70
2019-02-07T16:18:55.255Z,8.23
2019-02-07T16:27:39.264Z,7.00
2019-02-07T16:31:44.615Z,9.83
2019-02-07T16:35:49.453Z,10.20
2019-02-07T16:39:54.093Z,8.77
2019-02-07T16:43:58.886Z,9.47
2019-02-07T16:48:03.648Z,11.03
2019-02-07T16:52:08.327Z,11.60
2019-02-07T16:56:13.286Z,10.03
2019-02-07T17:00:20.860Z,11.97
2019-02-07T17:04:25.640Z,8.03
2019-02-07T17:08:30.197Z,11.73
2019-02-07T17:12:35.622Z,12.37
2019-02-07T17:16:40.217Z,12.03
2019-02-07T17:20:44.844Z,13.00
2019-02-07T17:24:49.630Z,11.90
2019-02-07T17:28:54.282Z,11.03
2019-02-07T17:32:58.851Z,12.53
2019-02-07T17:37:03.348Z,14.77
2019-02-07T17:41:07.944Z,14.60
2019-02-07T17:45:16.190Z,14.83
2019-02-07T17:49:21.204Z,13.27
2019-02-07T17:53:25.819Z,12.73
2019-02-07T17:57:30.337Z,14.13
2019-02-07T18:01:35.084Z,10.83
2019-02-07T18:05:40.099Z,12.00
2019-02-07T18:09:44.430Z,14.73
2019-02-07T18:13:48.848Z,12.20
2019-02-07T18:17:53.207Z,15.67
2019-02-07T18:21:57.449Z,13.47
2019-02-07T18:26:01.691Z,14.50
2019-02-07T18:34:36.638Z,13.90
2019-02-07T18:38:41.040Z,14.53
2019-02-07T18:42:45.485Z,13.50
2019-02-07T18:46:49.619Z,15.70
2019-02-07T18:50:53.847Z,14.67
2019-02-07T18:54:59.565Z,13.30
2019-02-07T18:59:03.742Z,18.30
2019-02-07T19:03:08.973Z,12.57
2019-02-07T19:07:13.152Z,15.17
2019-02-07T19:11:17.621Z,15.83
2019-02-07T19:15:24.880Z,13.57
2019-02-07T19:19:29.250Z,15.50
2019-02-07T19:23:33.521Z,13.60
2019-02-07T19:27:37.825Z,14.13
2019-02-07T19:31:41.998Z,12.10
2019-02-07T19:35:46.291Z,11.97
2019-02-07T19:39:50.597Z,16.93
2019-02-07T19:43:54.820Z,14.33
2019-02-07T19:47:59.487Z,15.53
2019-02-07T19:52:08.283Z,14.17
2019-02-07T19:56:09.697Z,12.40
2019-02-07T20:00:16.688Z,14.40
2019-02-07T20:04:21.143Z,16.73
2019-02-07T20:08:25.370Z,13.97
2019-02-07T20:12:29.554Z,17.10
2019-02-07T20:16:33.821Z,11.33
2019-02-07T20:20:38.964Z,14.67
2019-02-07T20:24:46.129Z,12.80
2019-02-07T20:28:51.738Z,14.70
2019-02-07T20:32:55.205Z,14.43
2019-02-07T20:36:59.587Z,12.63
2019-02-07T20:41:03.997Z,13.43
2019-02-07T20:45:09.280Z,15.47
2019-02-07T20:49:13.777Z,12.10
2019-02-07T20:53:18.241Z,11.90
2019-02-07T20:57:22.929Z,13.77
2019-02-07T21:01:27.225Z,14.47
2019-02-07T21:05:32.630Z,12.80
2019-02-07T21:09:36.810Z,13.90
2019-02-07T21:13:41.090Z,12.53
2019-02-07T21:17:45.458Z,11.93
2019-02-07T21:21:49.791Z,10.70
2019-02-07T21:25:54.172Z,13.07
2019-02-07T21:29:58.400Z,12.00
2019-02-07T21:34:02.607Z,12.60
2019-02-07T21:38:07.252Z,12.73
2019-02-07T21:42:11.465Z,16.30
2019-02-07T21:46:15.688Z,12.27
2019-02-07T21:50:21.842Z,12.47
2019-02-07T21:54:26.395Z,14.70
2019-02-07T21:58:30.960Z,13.50
2019-02-07T22:02:35.141Z,11.83
2019-02-07T22:06:39.358Z,13.97
2019-02-07T22:10:43.988Z,14.87
2019-02-07T22:14:48.508Z,15.43
2019-02-07T22:18:52.720Z,17.37
2019-02-07T22:22:57.008Z,17.00
2019-02-07T22:27:01.703Z,16.07
2019-02-07T22:31:05.930Z,16.13
2019-02-07T22:35:10.666Z,16.53
2019-02-07T22:39:14.870Z,17.83
2019-02-07T22:43:19.108Z,17.17
2019-02-07T22:47:23.297Z,16.17
2019-02-07T22:51:27.522Z,14.00
2019-02-07T22:55:31.809Z,14.20
2019-02-07T22:59:36.035Z,17.40
2019-02-07T23:04:03.802Z,16.37
2019-02-07T23:08:08.111Z,16.27
2019-02-07T23:12:12.348Z,20.87
2019-02-07T23:16:16.821Z,16.27
2019-02-07T23:20:21.788Z,17.57
2019-02-07T23:24:26.044Z,15.87
2019-02-07T23:28:30.317Z,15.93
2019-02-07T23:32:34.549Z,15.03
2019-02-07T23:36:38.884Z,14.93
2019-02-07T23:40:43.078Z,14.30
2019-02-07T23:44:47.310Z,15.17
2019-02-07T23:48:51.670Z,12.70
2019-02-07T23:52:55.958Z,16.73
2019-02-07T23:57:00.215Z,17.30
